createdAt,value
2022-12-01T00:01:36.309Z,78.78
2022-12-01T00:04:05.344Z,78.80
2022-12-01T00:06:33.509Z,78.73
2022-12-01T00:09:20.545Z,78.59
2022-12-01T00:11:49.162Z,78.49
2022-12-01T00:14:18.052Z,78.49
2022-12-01T00:16:46.422Z,78.64
2022-12-01T00:19:14.709Z,78.66
2022-12-01T00:21:42.992Z,78.52
2022-12-01T00:24:12.183Z,78.49
2022-12-01T00:26:40.374Z,78.22
2022-12-01T00:29:09.457Z,78.23
2022-12-01T00:31:37.734Z,78.23
2022-12-01T00:34:11.007Z,78.41
2022-12-01T00:36:39.915Z,78.63
2022-12-01T00:39:09.321Z,78.73
2022-12-01T00:41:37.550Z,78.39
2022-12-01T00:44:05.871Z,78.46
2022-12-01T00:46:34.147Z,78.51
2022-12-01T00:49:02.425Z,78.19
2022-12-01T00:51:30.704Z,78.11
2022-12-01T00:53:58.775Z,78.58
2022-12-01T00:56:27.156Z,78.72
2022-12-01T00:58:55.196Z,78.58
2022-12-01T01:01:23.745Z,78.31
2022-12-01T01:03:51.880Z,78.68
2022-12-01T01:06:19.962Z,78.02
2022-12-01T01:08:47.999Z,77.95
2022-12-01T01:11:16.197Z,78.56
2022-12-01T01:13:44.269Z,78.74
2022-12-01T01:16:16.862Z,78.72
2022-12-01T01:18:45.329Z,79.02
2022-12-01T01:21:21.279Z,79.10
2022-12-01T01:23:51.408Z,78.50
2022-12-01T01:26:25.518Z,78.22
2022-12-01T01:28:56.560Z,78.18
2022-12-01T01:31:26.476Z,78.75
2022-12-01T01:33:56.731Z,79.05
2022-12-01T01:36:25.914Z,79.19
2022-12-01T01:38:55.327Z,79.37
2022-12-01T01:41:24.498Z,79.28
2022-12-01T01:44:00.045Z,79.07
2022-12-01T01:46:35.447Z,78.70
2022-12-01T01:49:08.434Z,78.43
2022-12-01T01:51:39.621Z,78.48
2022-12-01T01:54:31.585Z,78.66
2022-12-01T01:57:01.979Z,78.76
2022-12-01T01:59:37.220Z,78.74
2022-12-01T02:02:08.701Z,79.00
2022-12-01T02:04:40.946Z,78.72
2022-12-01T02:07:11.801Z,78.86
2022-12-01T02:09:40.053Z,79.06
2022-12-01T02:12:26.473Z,80.32
2022-12-01T02:15:24.123Z,79.83
2022-12-01T02:18:38.504Z,79.89
2022-12-01T02:21:21.659Z,79.35
2022-12-01T02:24:08.517Z,79.47
2022-12-01T02:27:00.966Z,79.44
2022-12-01T02:29:38.397Z,79.66
2022-12-01T02:32:06.525Z,79.41
2022-12-01T02:34:46.579Z,79.43
2022-12-01T02:37:38.535Z,79.65
2022-12-01T02:40:20.507Z,79.73
2022-12-01T02:43:28.226Z,79.50
2022-12-01T02:46:07.878Z,79.47
2022-12-01T02:48:39.814Z,78.25
2022-12-01T02:51:30.537Z,78.96
2022-12-01T02:54:00.843Z,79.39
2022-12-01T02:56:30.039Z,79.57
2022-12-01T02:58:58.227Z,79.09
2022-12-01T03:01:54.735Z,79.17
2022-12-01T03:04:35.117Z,79.83
2022-12-01T03:07:41.202Z,79.56
2022-12-01T03:10:27.988Z,79.23
2022-12-01T03:13:14.338Z,79.87
2022-12-01T03:16:00.774Z,80.92
2022-12-01T03:19:04.703Z,80.56
2022-12-01T03:21:37.997Z,80.62
2022-12-01T03:24:10.675Z,80.29
2022-12-01T03:26:41.082Z,79.78
2022-12-01T03:29:14.910Z,79.83
2022-12-01T03:31:48.792Z,80.22
2022-12-01T03:34:20.386Z,80.34
2022-12-01T03:36:54.514Z,80.28
2022-12-01T03:39:29.350Z,80.51
2022-12-01T03:42:02.250Z,80.50
2022-12-01T03:44:37.236Z,79.97
2022-12-01T03:47:10.939Z,79.52
2022-12-01T03:49:40.854Z,81.05
2022-12-01T03:52:30.636Z,80.84
2022-12-01T03:55:15.912Z,80.87
2022-12-01T03:58:05.383Z,81.04
2022-12-01T04:00:33.982Z,80.35
2022-12-01T04:03:06.027Z,80.16
2022-12-01T04:05:35.341Z,80.34
2022-12-01T04:08:03.651Z,80.83
2022-12-01T04:10:33.105Z,81.05
2022-12-01T04:13:01.497Z,81.04
2022-12-01T04:15:29.875Z,80.48
2022-12-01T04:17:57.993Z,80.45
2022-12-01T04:20:26.224Z,80.33
2022-12-01T04:22:54.705Z,80.21
2022-12-01T04:25:22.938Z,80.13
2022-12-01T04:27:51.366Z,79.48
2022-12-01T04:30:19.484Z,79.83
2022-12-01T04:32:47.709Z,79.94
2022-12-01T04:35:16.197Z,80.19
2022-12-01T04:37:44.262Z,80.20
2022-12-01T04:40:12.744Z,79.33
2022-12-01T04:42:40.830Z,80.02
2022-12-01T04:45:09.607Z,80.00
2022-12-01T04:47:37.628Z,80.10
2022-12-01T04:50:06.683Z,79.86
2022-12-01T04:52:37.520Z,79.53
2022-12-01T04:55:06.500Z,79.60
2022-12-01T04:57:34.878Z,79.57
2022-12-01T05:00:13.029Z,79.69
2022-12-01T05:02:44.948Z,79.79
2022-12-01T05:05:14.305Z,79.79
2022-12-01T05:07:42.493Z,79.86
2022-12-01T05:10:13.779Z,79.60
2022-12-01T05:12:41.844Z,79.36
2022-12-01T05:15:10.218Z,79.52
2022-12-01T05:17:38.349Z,79.40
2022-12-01T05:20:26.039Z,79.31
2022-12-01T05:23:05.403Z,79.50
2022-12-01T05:25:34.795Z,79.57
2022-12-01T05:28:03.255Z,79.67
2022-12-01T05:30:31.323Z,79.44
2022-12-01T05:32:59.411Z,79.57
2022-12-01T05:35:27.670Z,79.48
2022-12-01T05:37:55.748Z,79.28
2022-12-01T05:40:23.756Z,79.23
2022-12-01T05:42:51.886Z,79.47
2022-12-01T05:45:19.959Z,79.74
2022-12-01T05:47:48.134Z,79.66
2022-12-01T05:50:16.248Z,79.85
2022-12-01T05:52:44.262Z,79.91
2022-12-01T05:55:12.244Z,79.98
2022-12-01T05:57:40.526Z,79.83
2022-12-01T06:00:09.821Z,79.90
2022-12-01T06:02:42.298Z,80.28
2022-12-01T06:05:10.576Z,79.96
2022-12-01T06:07:40.544Z,79.57
2022-12-01T06:10:09.896Z,79.83
2022-12-01T06:12:38.399Z,80.20
2022-12-01T06:15:07.988Z,80.16
2022-12-01T06:17:40.131Z,80.38
2022-12-01T06:20:10.000Z,80.19
2022-12-01T06:22:38.144Z,80.47
2022-12-01T06:25:07.017Z,80.40
2022-12-01T06:27:35.307Z,79.98
2022-12-01T06:30:04.910Z,79.83
2022-12-01T06:32:32.882Z,79.75
2022-12-01T06:35:00.882Z,79.53
2022-12-01T06:37:29.028Z,79.37
2022-12-01T06:39:56.948Z,79.29
2022-12-01T06:42:25.029Z,79.19
2022-12-01T06:44:53.345Z,79.18
2022-12-01T06:47:21.416Z,79.09
2022-12-01T06:49:49.660Z,79.10
2022-12-01T06:52:17.866Z,78.72
2022-12-01T06:54:46.041Z,78.28
2022-12-01T06:57:14.634Z,77.62
2022-12-01T06:59:43.003Z,76.98
2022-12-01T07:02:14.310Z,76.30
2022-12-01T07:04:42.835Z,75.10
2022-12-01T07:07:12.341Z,73.91
2022-12-01T07:09:40.565Z,73.37
2022-12-01T07:12:08.687Z,71.44
2022-12-01T07:14:36.965Z,69.81
2022-12-01T07:17:04.973Z,68.02
2022-12-01T07:19:33.025Z,65.55
2022-12-01T07:22:01.078Z,63.47
2022-12-01T07:24:30.483Z,60.31
2022-12-01T07:26:58.319Z,57.93
2022-12-01T07:29:26.419Z,55.62
2022-12-01T07:31:54.491Z,52.67
2022-12-01T07:34:22.525Z,50.25
2022-12-01T07:36:50.508Z,50.50
2022-12-01T07:39:18.910Z,48.98
2022-12-01T07:41:46.986Z,48.32
2022-12-01T07:44:15.057Z,45.77
2022-12-01T07:46:43.207Z,40.61
2022-12-01T07:49:14.849Z,41.15
2022-12-01T07:51:42.958Z,42.10
2022-12-01T07:54:14.464Z,42.16
2022-12-01T07:56:43.204Z,40.69
2022-12-01T07:59:12.206Z,40.43
2022-12-01T08:01:44.240Z,40.90
2022-12-01T08:04:13.251Z,40.84
2022-12-01T08:06:41.424Z,41.15
2022-12-01T08:09:09.560Z,41.15
2022-12-01T08:11:37.566Z,41.55
2022-12-01T08:14:05.611Z,40.47
2022-12-01T08:16:33.610Z,40.19
2022-12-01T08:19:01.809Z,40.46
2022-12-01T08:21:29.875Z,41.26
2022-12-01T08:23:58.647Z,40.40
2022-12-01T08:26:27.546Z,37.69
2022-12-01T08:28:55.917Z,38.34
2022-12-01T08:31:28.045Z,38.72
2022-12-01T08:33:57.279Z,38.47
2022-12-01T08:36:25.787Z,37.58
2022-12-01T08:38:55.885Z,37.27
2022-12-01T08:41:25.307Z,35.98
2022-12-01T08:43:58.470Z,34.77
2022-12-01T08:46:28.856Z,33.75
2022-12-01T08:48:57.944Z,32.73
2022-12-01T08:51:27.139Z,31.34
2022-12-01T08:53:57.182Z,31.84
2022-12-01T08:56:37.604Z,29.74
2022-12-01T08:59:06.680Z,28.95
2022-12-01T09:01:35.771Z,25.89
2022-12-01T09:04:08.794Z,24.85
2022-12-01T09:06:42.677Z,27.39
2022-12-01T09:09:16.983Z,26.09
2022-12-01T09:11:46.384Z,24.10
2022-12-01T09:14:16.793Z,26.06
2022-12-01T09:16:46.899Z,28.34
2022-12-01T09:19:20.588Z,28.16
2022-12-01T09:21:52.765Z,25.14
2022-12-01T09:24:20.980Z,25.12
2022-12-01T09:26:49.457Z,24.04
2022-12-01T09:29:17.594Z,25.02
2022-12-01T09:31:45.653Z,24.23
2022-12-01T09:34:17.019Z,21.14
2022-12-01T09:36:46.518Z,23.52
2022-12-01T09:39:17.650Z,24.67
2022-12-01T09:42:03.810Z,23.45
2022-12-01T09:44:40.062Z,23.91
2022-12-01T09:47:19.188Z,22.68
2022-12-01T09:49:57.837Z,23.66
2022-12-01T09:52:28.908Z,24.43
2022-12-01T09:54:59.306Z,23.97
2022-12-01T09:57:33.023Z,22.84
2022-12-01T10:00:09.250Z,23.46
2022-12-01T10:02:46.230Z,24.00
2022-12-01T10:05:24.769Z,23.93
2022-12-01T10:07:58.842Z,24.25
2022-12-01T10:10:48.540Z,24.58
2022-12-01T10:13:28.797Z,26.13
2022-12-01T10:16:24.695Z,26.65
2022-12-01T10:19:21.076Z,25.80
2022-12-01T10:22:26.708Z,26.45
2022-12-01T10:25:19.362Z,26.28
2022-12-01T10:27:59.615Z,27.72
2022-12-01T10:30:27.894Z,27.35
2022-12-01T10:33:02.209Z,27.70
2022-12-01T10:35:37.679Z,28.56
2022-12-01T10:38:15.284Z,28.66
2022-12-01T10:40:44.966Z,27.45
2022-12-01T10:43:14.150Z,26.63
2022-12-01T10:45:44.905Z,27.38
2022-12-01T10:48:17.375Z,28.33
2022-12-01T10:50:50.058Z,29.11
2022-12-01T10:53:28.681Z,29.85
2022-12-01T10:56:18.348Z,30.98
2022-12-01T10:59:08.662Z,31.74
2022-12-01T11:01:37.145Z,32.37
2022-12-01T11:04:25.567Z,32.89
2022-12-01T11:06:53.864Z,33.53
2022-12-01T11:09:28.071Z,34.03
2022-12-01T11:12:04.736Z,35.64
2022-12-01T11:14:46.224Z,36.28
2022-12-01T11:17:40.405Z,36.89
2022-12-01T11:20:35.642Z,38.42
2022-12-01T11:23:20.684Z,39.26
2022-12-01T11:26:23.875Z,38.52
2022-12-01T11:29:07.969Z,38.34
2022-12-01T11:31:51.299Z,39.76
2022-12-01T11:34:26.925Z,39.68
2022-12-01T11:36:58.153Z,39.62
2022-12-01T11:39:34.061Z,39.78
2022-12-01T11:42:14.173Z,40.07
2022-12-01T11:44:52.464Z,40.26
2022-12-01T11:47:24.793Z,40.61
2022-12-01T11:49:58.866Z,41.21
2022-12-01T11:52:36.555Z,41.48
2022-12-01T11:55:11.077Z,41.55
2022-12-01T11:57:43.957Z,41.69
2022-12-01T12:00:28.031Z,40.69
2022-12-01T12:03:08.678Z,40.19
2022-12-01T12:06:31.834Z,40.31
2022-12-01T12:08:53.498Z,38.95
2022-12-01T12:11:33.207Z,37.40
2022-12-01T12:14:20.120Z,36.12
2022-12-01T12:17:00.279Z,35.61
2022-12-01T12:20:06.442Z,34.70
2022-12-01T12:22:56.166Z,34.45
2022-12-01T12:25:49.575Z,32.29
2022-12-01T12:28:23.310Z,33.32
2022-12-01T12:31:09.003Z,32.95
2022-12-01T12:33:58.860Z,32.81
2022-12-01T12:36:42.191Z,32.33
2022-12-01T12:39:19.685Z,32.31
2022-12-01T12:41:55.061Z,32.35
2022-12-01T12:44:44.906Z,32.44
2022-12-01T12:47:33.071Z,32.67
2022-12-01T12:50:15.355Z,32.11
2022-12-01T12:52:47.759Z,30.87
2022-12-01T12:55:33.031Z,31.15
2022-12-01T12:58:27.189Z,32.17
2022-12-01T13:01:01.712Z,32.80
2022-12-01T13:03:47.190Z,32.39
2022-12-01T13:06:27.786Z,32.81
2022-12-01T13:08:58.796Z,32.66
2022-12-01T13:11:36.101Z,32.20
2022-12-01T13:14:28.528Z,32.61
2022-12-01T13:17:03.050Z,33.85
2022-12-01T13:19:35.862Z,34.59
2022-12-01T13:22:07.179Z,35.29
2022-12-01T13:24:35.561Z,35.95
2022-12-01T13:27:19.096Z,36.16
2022-12-01T13:29:51.232Z,36.54
2022-12-01T13:32:40.736Z,37.03
2022-12-01T13:35:24.066Z,37.75
2022-12-01T13:37:52.651Z,38.83
2022-12-01T13:40:20.930Z,39.38
2022-12-01T13:42:54.223Z,40.21
2022-12-01T13:45:22.422Z,40.62
2022-12-01T13:47:56.099Z,40.82
2022-12-01T13:50:36.360Z,41.77
2022-12-01T13:53:11.702Z,44.34
2022-12-01T13:56:00.090Z,45.87
2022-12-01T13:58:34.265Z,45.93
2022-12-01T14:01:20.964Z,46.93
2022-12-01T14:04:03.707Z,47.72
2022-12-01T14:06:49.420Z,47.49
2022-12-01T14:09:39.564Z,47.87
2022-12-01T14:12:30.469Z,47.87
2022-12-01T14:15:22.607Z,47.97
2022-12-01T14:18:22.113Z,48.29
2022-12-01T14:20:50.699Z,48.05
2022-12-01T14:23:24.506Z,50.38
2022-12-01T14:26:20.941Z,50.00
2022-12-01T14:29:00.971Z,50.49
2022-12-01T14:31:50.013Z,50.61
2022-12-01T14:34:21.107Z,51.12
2022-12-01T14:36:54.804Z,51.50
2022-12-01T14:39:32.585Z,51.19
2022-12-01T14:42:04.019Z,52.28
2022-12-01T14:44:42.028Z,52.46
2022-12-01T14:47:21.190Z,52.97
2022-12-01T14:50:03.291Z,53.33
2022-12-01T14:52:36.690Z,53.79
2022-12-01T14:55:16.126Z,54.00
2022-12-01T14:57:51.008Z,54.35
2022-12-01T15:00:25.091Z,53.75
2022-12-01T15:02:56.542Z,54.33
2022-12-01T15:05:29.531Z,54.92
2022-12-01T15:08:25.591Z,55.48
2022-12-01T15:10:56.068Z,55.43
2022-12-01T15:13:33.559Z,56.37
2022-12-01T15:16:13.206Z,56.78
2022-12-01T15:18:41.276Z,57.33
2022-12-01T15:21:09.345Z,57.43
2022-12-01T15:23:38.033Z,58.19
2022-12-01T15:26:07.027Z,57.76
2022-12-01T15:28:36.532Z,57.58
2022-12-01T15:31:12.148Z,58.36
2022-12-01T15:33:50.697Z,57.90
2022-12-01T15:36:18.976Z,57.97
2022-12-01T15:38:48.702Z,58.26
2022-12-01T15:41:29.433Z,58.66
2022-12-01T15:44:03.683Z,59.61
2022-12-01T15:46:34.489Z,58.95
2022-12-01T15:49:16.654Z,59.43
2022-12-01T15:51:45.602Z,59.87
2022-12-01T15:54:26.686Z,59.75
2022-12-01T15:56:56.489Z,59.54
2022-12-01T15:59:26.615Z,61.40
2022-12-01T16:01:56.921Z,61.63
2022-12-01T16:04:28.248Z,60.51
2022-12-01T16:07:02.238Z,61.33
2022-12-01T16:09:35.755Z,62.06
2022-12-01T16:12:23.530Z,62.53
2022-12-01T16:15:00.923Z,62.19
2022-12-01T16:17:45.134Z,62.28
2022-12-01T16:20:19.289Z,62.67
2022-12-01T16:22:51.247Z,62.19
2022-12-01T16:25:30.744Z,62.13
2022-12-01T16:27:59.267Z,62.72
2022-12-01T16:30:35.158Z,62.82
2022-12-01T16:33:15.109Z,63.05
2022-12-01T16:35:43.865Z,62.93
2022-12-01T16:38:22.490Z,63.53
2022-12-01T16:40:53.116Z,63.66
2022-12-01T16:43:23.591Z,63.91
2022-12-01T16:46:00.406Z,64.18
2022-12-01T16:48:29.513Z,64.56
2022-12-01T16:51:02.705Z,64.38
2022-12-01T16:53:31.475Z,63.94
2022-12-01T16:56:01.920Z,64.91
2022-12-01T16:58:30.215Z,63.16
2022-12-01T17:00:58.879Z,64.57
2022-12-01T17:03:28.595Z,64.91
2022-12-01T17:06:00.303Z,64.10
2022-12-01T17:08:28.842Z,63.79
2022-12-01T17:10:57.003Z,64.51
2022-12-01T17:13:25.183Z,64.86
2022-12-01T17:15:55.039Z,65.24
2022-12-01T17:18:25.274Z,65.28
2022-12-01T17:21:01.380Z,65.05
2022-12-01T17:23:29.772Z,64.99
2022-12-01T17:25:57.744Z,65.25
2022-12-01T17:28:26.211Z,65.78
2022-12-01T17:30:54.386Z,65.71
2022-12-01T17:33:22.568Z,65.77
2022-12-01T17:35:50.731Z,65.94
2022-12-01T17:38:18.814Z,66.07
2022-12-01T17:40:59.872Z,66.63
2022-12-01T17:43:28.157Z,66.76
2022-12-01T17:45:56.320Z,66.50
2022-12-01T17:48:24.608Z,66.65
2022-12-01T17:50:52.781Z,66.71
2022-12-01T17:53:20.960Z,66.76
2022-12-01T17:55:49.234Z,66.72
2022-12-01T17:58:21.403Z,66.83
2022-12-01T18:00:53.582Z,67.07
2022-12-01T18:03:21.921Z,67.18
2022-12-01T18:06:01.324Z,67.34
2022-12-01T18:08:31.116Z,67.53
2022-12-01T18:11:07.944Z,67.59
2022-12-01T18:13:39.997Z,67.66
2022-12-01T18:16:13.689Z,67.74
2022-12-01T18:18:42.328Z,67.93
2022-12-01T18:21:13.573Z,68.09
2022-12-01T18:23:41.649Z,68.04
2022-12-01T18:26:15.751Z,68.30
2022-12-01T18:28:44.548Z,68.42
2022-12-01T18:31:15.553Z,68.78
2022-12-01T18:33:45.201Z,68.70
2022-12-01T18:36:17.751Z,68.48
2022-12-01T18:38:47.487Z,68.66
2022-12-01T18:41:16.130Z,68.92
2022-12-01T18:43:44.863Z,69.13
2022-12-01T18:46:15.557Z,69.22
2022-12-01T18:48:48.695Z,69.47
2022-12-01T18:51:17.339Z,69.51
2022-12-01T18:53:45.655Z,69.58
2022-12-01T18:56:15.370Z,69.62
2022-12-01T18:58:43.836Z,69.70
2022-12-01T19:01:32.183Z,69.89
2022-12-01T19:04:01.693Z,69.89
2022-12-01T19:06:30.999Z,70.03
2022-12-01T19:09:01.829Z,70.16
2022-12-01T19:11:29.846Z,70.15
2022-12-01T19:13:57.970Z,69.58
2022-12-01T19:16:26.303Z,69.96
2022-12-01T19:18:54.421Z,69.82
2022-12-01T19:21:23.418Z,69.95
2022-12-01T19:23:52.816Z,70.18
2022-12-01T19:26:22.527Z,70.40
2022-12-01T19:28:51.112Z,70.62
2022-12-01T19:31:23.592Z,70.41
2022-12-01T19:33:54.117Z,70.54
2022-12-01T19:36:24.451Z,70.54
2022-12-01T19:38:53.167Z,70.64
2022-12-01T19:41:24.184Z,70.31
2022-12-01T19:43:53.267Z,70.78
2022-12-01T19:46:23.335Z,70.51
2022-12-01T19:48:57.376Z,70.55
2022-12-01T19:51:28.054Z,70.53
2022-12-01T19:53:56.424Z,70.51
2022-12-01T19:56:25.401Z,70.80
2022-12-01T19:58:53.882Z,70.94
2022-12-01T20:01:22.067Z,70.82
2022-12-01T20:03:52.073Z,70.92
2022-12-01T20:06:29.012Z,70.91
2022-12-01T20:09:00.330Z,70.48
2022-12-01T20:11:35.493Z,70.42
2022-12-01T20:14:07.417Z,70.83
2022-12-01T20:16:35.866Z,71.19
2022-12-01T20:19:05.285Z,70.95
2022-12-01T20:21:36.670Z,70.77
2022-12-01T20:24:07.564Z,71.19
2022-12-01T20:26:44.043Z,71.15
2022-12-01T20:29:16.117Z,71.20
2022-12-01T20:31:45.069Z,71.37
2022-12-01T20:34:17.196Z,71.53
2022-12-01T20:36:45.511Z,71.62
2022-12-01T20:39:14.235Z,71.86
2022-12-01T20:41:44.010Z,72.02
2022-12-01T20:44:13.159Z,71.99
2022-12-01T20:46:41.521Z,72.11
2022-12-01T20:49:09.904Z,72.10
2022-12-01T20:51:38.160Z,72.18
2022-12-01T20:56:56.852Z,72.42
2022-12-01T20:59:24.925Z,71.95
2022-12-01T21:01:53.128Z,71.94
2022-12-01T21:04:21.268Z,72.37
2022-12-01T21:06:50.155Z,72.53
2022-12-01T21:09:18.337Z,72.71
2022-12-01T21:12:07.809Z,72.60
2022-12-01T21:14:45.453Z,72.93
2022-12-01T21:17:19.722Z,72.98
2022-12-01T21:20:01.862Z,72.38
2022-12-01T21:22:30.917Z,72.18
2022-12-01T21:25:16.909Z,71.97
2022-12-01T21:27:49.193Z,72.53
2022-12-01T21:30:25.865Z,72.56
2022-12-01T21:32:55.773Z,72.65
2022-12-01T21:35:25.174Z,72.84
2022-12-01T21:38:04.338Z,72.90
2022-12-01T21:40:32.480Z,73.09
2022-12-01T21:43:16.486Z,73.03
2022-12-01T21:45:44.544Z,73.22
2022-12-01T21:48:18.649Z,73.34
2022-12-01T21:50:50.839Z,73.36
2022-12-01T21:53:25.317Z,73.37
2022-12-01T21:55:56.445Z,73.26
2022-12-01T21:58:27.516Z,73.50
2022-12-01T22:00:58.018Z,73.53
2022-12-01T22:03:31.203Z,73.39
2022-12-01T22:06:29.706Z,73.58
2022-12-01T22:09:01.961Z,73.37
2022-12-01T22:11:31.100Z,73.68
2022-12-01T22:14:08.434Z,73.71
2022-12-01T22:16:45.427Z,73.86
2022-12-01T22:19:32.237Z,73.91
2022-12-01T22:22:10.652Z,73.74
2022-12-01T22:24:53.769Z,73.48
2022-12-01T22:27:39.057Z,73.39
2022-12-01T22:30:07.564Z,73.76
2022-12-01T22:32:57.519Z,73.82
2022-12-01T22:35:59.695Z,74.16
2022-12-01T22:38:39.845Z,73.98
2022-12-01T22:41:16.211Z,74.15
2022-12-01T22:43:57.032Z,74.16
2022-12-01T22:46:31.774Z,74.16
2022-12-01T22:49:11.124Z,74.19
2022-12-01T22:51:56.321Z,74.28
2022-12-01T22:54:28.957Z,74.35
2022-12-01T22:57:15.614Z,74.31
2022-12-01T22:59:44.806Z,74.33
2022-12-01T23:02:21.290Z,74.30
2022-12-01T23:04:55.475Z,74.31
2022-12-01T23:07:26.649Z,74.39
2022-12-01T23:10:04.025Z,74.43
2022-12-01T23:12:34.897Z,74.30
2022-12-01T23:15:25.360Z,74.29
2022-12-01T23:17:53.900Z,74.35
2022-12-01T23:20:30.795Z,74.10
2022-12-01T23:23:02.136Z,73.74
2022-12-01T23:25:30.960Z,74.22
2022-12-01T23:28:03.127Z,73.90
2022-12-01T23:30:31.507Z,74.21
2022-12-01T23:33:11.455Z,74.42
2022-12-01T23:35:58.840Z,74.43
2022-12-01T23:38:37.501Z,74.48
2022-12-01T23:41:08.463Z,74.66
2022-12-01T23:43:43.172Z,74.77
2022-12-01T23:46:12.644Z,74.60
2022-12-01T23:48:47.503Z,74.79
2022-12-01T23:51:31.210Z,74.93
2022-12-01T23:54:10.992Z,75.37
2022-12-01T23:56:39.372Z,75.53
2022-12-01T23:59:13.294Z,75.28
